sensor_id;sensor_type;location;lat;lon;timestamp;pressure;altitude;pressure_sealevel;temperature;humidity
58534;BME280;44109;52.398;7.024;2023-07-30T00:01:39;100618.41;;;17.36;100.00
58534;BME280;44109;52.398;7.024;2023-07-30T00:04:07;100613.63;;;17.33;100.00
58534;BME280;44109;52.398;7.024;2023-07-30T00:06:34;100616.13;;;17.28;100.00
58534;BME280;44109;52.398;7.024;2023-07-30T00:09:02;100608.13;;;17.26;100.00
58534;BME280;44109;52.398;7.024;2023-07-30T00:11:31;100612.59;;;17.20;100.00
58534;BME280;44109;52.398;7.024;2023-07-30T00:13:59;100606.53;;;17.25;100.00
58534;BME280;44109;52.398;7.024;2023-07-30T00:16:26;100598.63;;;17.16;100.00
58534;BME280;44109;52.398;7.024;2023-07-30T00:18:54;100610.94;;;17.26;100.00
58534;BME280;44109;52.398;7.024;2023-07-30T00:21:22;100604.88;;;17.31;100.00
58534;BME280;44109;52.398;7.024;2023-07-30T00:23:50;100622.56;;;17.24;100.00
58534;BME280;44109;52.398;7.024;2023-07-30T00:26:18;100621.63;;;17.35;100.00
58534;BME280;44109;52.398;7.024;2023-07-30T00:28:47;100618.41;;;17.36;100.00
58534;BME280;44109;52.398;7.024;2023-07-30T00:31:15;100613.63;;;17.33;100.00
58534;BME280;44109;52.398;7.024;2023-07-30T00:33:42;100608.50;;;17.28;100.00
58534;BME280;44109;52.398;7.024;2023-07-30T00:36:10;100620.06;;;17.30;100.00
58534;BME280;44109;52.398;7.024;2023-07-30T00:38:37;100614.47;;;17.30;100.00
58534;BME280;44109;52.398;7.024;2023-07-30T00:41:05;100620.69;;;17.14;100.00
58534;BME280;44109;52.398;7.024;2023-07-30T00:43:32;100625.94;;;17.12;100.00
58534;BME280;44109;52.398;7.024;2023-07-30T00:46:01;100613.06;;;17.15;100.00
58534;BME280;44109;52.398;7.024;2023-07-30T00:48:29;100617.97;;;17.07;100.00
58534;BME280;44109;52.398;7.024;2023-07-30T00:50:58;100613.22;;;17.04;100.00
58534;BME280;44109;52.398;7.024;2023-07-30T00:53:27;100618.44;;;17.02;100.00
58534;BME280;44109;52.398;7.024;2023-07-30T00:55:55;100621.47;;;17.15;100.00
58534;BME280;44109;52.398;7.024;2023-07-30T00:58:24;100624.75;;;17.10;100.00
58534;BME280;44109;52.398;7.024;2023-07-30T01:00:53;100618.91;;;16.97;100.00
58534;BME280;44109;52.398;7.024;2023-07-30T01:03:23;100624.53;;;16.93;100.00
58534;BME280;44109;52.398;7.024;2023-07-30T01:05:51;100622.78;;;17.07;100.00
58534;BME280;44109;52.398;7.024;2023-07-30T01:08:19;100610.06;;;16.98;100.00
58534;BME280;44109;52.398;7.024;2023-07-30T01:10:47;100628.19;;;16.90;100.00
58534;BME280;44109;52.398;7.024;2023-07-30T01:13:16;100625.38;;;16.90;100.00
58534;BME280;44109;52.398;7.024;2023-07-30T01:15:44;100634.44;;;17.02;100.00
58534;BME280;44109;52.398;7.024;2023-07-30T01:18:14;100631.66;;;17.02;100.00
58534;BME280;44109;52.398;7.024;2023-07-30T01:20:43;100641.69;;;16.99;100.00
58534;BME280;44109;52.398;7.024;2023-07-30T01:23:12;100634.44;;;17.02;100.00
58534;BME280;44109;52.398;7.024;2023-07-30T01:25:40;100632.56;;;16.91;100.00
58534;BME280;44109;52.398;7.024;2023-07-30T01:28:15;100640.16;;;16.94;100.00
58534;BME280;44109;52.398;7.024;2023-07-30T01:30:46;100652.56;;;16.93;100.00
58534;BME280;44109;52.398;7.024;2023-07-30T01:33:15;100638.34;;;16.77;100.00
58534;BME280;44109;52.398;7.024;2023-07-30T01:35:43;100642.66;;;16.85;100.00
58534;BME280;44109;52.398;7.024;2023-07-30T01:38:13;100641.16;;;16.70;100.00
58534;BME280;44109;52.398;7.024;2023-07-30T01:40:41;100647.19;;;16.68;100.00
58534;BME280;44109;52.398;7.024;2023-07-30T01:43:09;100651.59;;;16.73;100.00
58534;BME280;44109;52.398;7.024;2023-07-30T01:45:37;100656.75;;;16.74;100.00
58534;BME280;44109;52.398;7.024;2023-07-30T01:48:06;100647.97;;;16.76;100.00
58534;BME280;44109;52.398;7.024;2023-07-30T01:50:33;100653.22;;;16.67;100.00
58534;BME280;44109;52.398;7.024;2023-07-30T01:53:01;100650.00;;;16.68;100.00
58534;BME280;44109;52.398;7.024;2023-07-30T01:55:30;100655.97;;;16.74;100.00
58534;BME280;44109;52.398;7.024;2023-07-30T01:57:57;100650.44;;;16.67;100.00
58534;BME280;44109;52.398;7.024;2023-07-30T02:00:25;100655.28;;;16.59;100.00
58534;BME280;44109;52.398;7.024;2023-07-30T02:02:53;100650.38;;;16.70;100.00
58534;BME280;44109;52.398;7.024;2023-07-30T02:05:20;100655.97;;;16.74;100.00
58534;BME280;44109;52.398;7.024;2023-07-30T02:07:48;100635.56;;;16.70;100.00
58534;BME280;44109;52.398;7.024;2023-07-30T02:10:15;100654.69;;;16.82;100.00
58534;BME280;44109;52.398;7.024;2023-07-30T02:12:44;100640.00;;;16.67;100.00
58534;BME280;44109;52.398;7.024;2023-07-30T02:15:12;100651.63;;;16.66;100.00
58534;BME280;44109;52.398;7.024;2023-07-30T02:17:40;100646.75;;;16.77;100.00
58534;BME280;44109;52.398;7.024;2023-07-30T02:20:08;100650.75;;;16.76;100.00
58534;BME280;44109;52.398;7.024;2023-07-30T02:22:36;100643.53;;;16.75;100.00
58534;BME280;44109;52.398;7.024;2023-07-30T02:25:05;100652.47;;;16.63;100.00
58534;BME280;44109;52.398;7.024;2023-07-30T02:27:33;100652.19;;;16.50;100.00
58534;BME280;44109;52.398;7.024;2023-07-30T02:30:02;100645.34;;;16.55;100.00
58534;BME280;44109;52.398;7.024;2023-07-30T02:32:30;100650.84;;;16.62;100.00
58534;BME280;44109;52.398;7.024;2023-07-30T02:34:58;100649.69;;;16.59;100.00
58534;BME280;44109;52.398;7.024;2023-07-30T02:37:25;100645.72;;;16.53;100.00
58534;BME280;44109;52.398;7.024;2023-07-30T02:39:53;100641.69;;;16.58;100.00
58534;BME280;44109;52.398;7.024;2023-07-30T02:42:20;100646.56;;;16.54;100.00
58534;BME280;44109;52.398;7.024;2023-07-30T02:44:48;100649.69;;;16.59;100.00
58534;BME280;44109;52.398;7.024;2023-07-30T02:47:17;100635.28;;;16.57;100.00
58534;BME280;44109;52.398;7.024;2023-07-30T02:49:45;100639.22;;;16.67;100.00
58534;BME280;44109;52.398;7.024;2023-07-30T02:52:12;100644.06;;;16.63;100.00
58534;BME280;44109;52.398;7.024;2023-07-30T02:54:40;100643.44;;;16.44;100.00
58534;BME280;44109;52.398;7.024;2023-07-30T02:57:08;100649.84;;;16.41;100.00
58534;BME280;44109;52.398;7.024;2023-07-30T02:59:36;100645.03;;;16.45;100.00
58534;BME280;44109;52.398;7.024;2023-07-30T03:02:04;100639.03;;;16.43;100.00
58534;BME280;44109;52.398;7.024;2023-07-30T03:04:34;100644.25;;;16.41;100.00
58534;BME280;44109;52.398;7.024;2023-07-30T03:07:02;100645.00;;;16.49;100.00
58534;BME280;44109;52.398;7.024;2023-07-30T03:09:29;100650.47;;;16.60;100.00
58534;BME280;44109;52.398;7.024;2023-07-30T03:11:57;100643.28;;;16.62;100.00
58534;BME280;44109;52.398;7.024;2023-07-30T03:14:25;100646.50;;;16.57;100.00
58534;BME280;44109;52.398;7.024;2023-07-30T03:16:52;100648.91;;;16.59;100.00
58534;BME280;44109;52.398;7.024;2023-07-30T03:19:20;100637.00;;;16.44;100.00
58534;BME280;44109;52.398;7.024;2023-07-30T03:21:49;100642.94;;;16.53;100.00
58534;BME280;44109;52.398;7.024;2023-07-30T03:24:16;100642.63;;;16.44;100.00
58534;BME280;44109;52.398;7.024;2023-07-30T03:26:44;100632.66;;;16.39;100.00
58534;BME280;44109;52.398;7.024;2023-07-30T03:29:12;100632.97;;;16.48;100.00
58534;BME280;44109;52.398;7.024;2023-07-30T03:31:39;100641.91;;;16.36;100.00
58534;BME280;44109;52.398;7.024;2023-07-30T03:34:07;100640.72;;;16.34;100.00
58534;BME280;44109;52.398;7.024;2023-07-30T03:36:34;100645.94;;;16.32;100.00
58534;BME280;44109;52.398;7.024;2023-07-30T03:39:03;100637.84;;;16.44;100.00
58534;BME280;44109;52.398;7.024;2023-07-30T03:41:31;100643.50;;;16.37;100.00
58534;BME280;44109;52.398;7.024;2023-07-30T03:43:59;100630.25;;;16.41;100.00
58534;BME280;44109;52.398;7.024;2023-07-30T03:46:26;100636.22;;;16.43;100.00
58534;BME280;44109;52.398;7.024;2023-07-30T03:48:54;100645.81;;;16.46;100.00
58534;BME280;44109;52.398;7.024;2023-07-30T03:51:21;100637.88;;;16.41;100.00
58534;BME280;44109;52.398;7.024;2023-07-30T03:53:49;100644.22;;;16.45;100.00
58534;BME280;44109;52.398;7.024;2023-07-30T03:56:18;100645.03;;;16.45;100.00
58534;BME280;44109;52.398;7.024;2023-07-30T03:58:46;100652.06;;;16.61;100.00
58534;BME280;44109;52.398;7.024;2023-07-30T04:01:13;100644.13;;;16.56;100.00
58534;BME280;44109;52.398;7.024;2023-07-30T04:03:41;100652.84;;;16.61;100.00
58534;BME280;44109;52.398;7.024;2023-07-30T04:06:09;100656.88;;;16.60;100.00
58534;BME280;44109;52.398;7.024;2023-07-30T04:08:36;100648.13;;;16.55;100.00
58534;BME280;44109;52.398;7.024;2023-07-30T04:11:04;100651.25;;;16.64;100.00
58534;BME280;44109;52.398;7.024;2023-07-30T04:13:33;100650.47;;;16.60;100.00
58534;BME280;44109;52.398;7.024;2023-07-30T04:16:00;100655.50;;;16.34;100.00
58534;BME280;44109;52.398;7.024;2023-07-30T04:18:28;100663.50;;;16.36;100.00
58534;BME280;44109;52.398;7.024;2023-07-30T04:20:55;100655.63;;;16.65;100.00
58534;BME280;44109;52.398;7.024;2023-07-30T04:23:23;100657.69;;;16.57;100.00
58534;BME280;44109;52.398;7.024;2023-07-30T04:25:51;100657.59;;;16.68;100.00
58534;BME280;44109;52.398;7.024;2023-07-30T04:28:19;100666.97;;;16.51;100.00
58534;BME280;44109;52.398;7.024;2023-07-30T04:30:47;100664.84;;;16.62;100.00
58534;BME280;44109;52.398;7.024;2023-07-30T04:33:15;100660.00;;;16.66;100.00
58534;BME280;44109;52.398;7.024;2023-07-30T04:35:43;100674.19;;;16.48;100.00
58534;BME280;44109;52.398;7.024;2023-07-30T04:38:10;100661.28;;;16.58;100.00
58534;BME280;44109;52.398;7.024;2023-07-30T04:40:39;100668.19;;;16.49;100.00
58534;BME280;44109;52.398;7.024;2023-07-30T04:43:06;100663.34;;;16.54;100.00
58534;BME280;44109;52.398;7.024;2023-07-30T04:45:34;100663.66;;;16.63;100.00
58534;BME280;44109;52.398;7.024;2023-07-30T04:48:03;100666.94;;;16.54;100.00
58534;BME280;44109;52.398;7.024;2023-07-30T04:50:31;100664.06;;;16.61;100.00
58534;BME280;44109;52.398;7.024;2023-07-30T04:52:59;100662.34;;;16.78;100.00
58534;BME280;44109;52.398;7.024;2023-07-30T04:55:27;100666.34;;;16.77;100.00
58534;BME280;44109;52.398;7.024;2023-07-30T04:57:54;100669.53;;;16.79;100.00
58534;BME280;44109;52.398;7.024;2023-07-30T05:00:22;100672.53;;;16.99;100.00
58534;BME280;44109;52.398;7.024;2023-07-30T05:02:49;100677.72;;;17.01;100.00
58534;BME280;44109;52.398;7.024;2023-07-30T05:05:18;100664.06;;;17.03;100.00
58534;BME280;44109;52.398;7.024;2023-07-30T05:07:46;100667.72;;;16.99;100.00
58534;BME280;44109;52.398;7.024;2023-07-30T05:10:13;100674.50;;;16.98;100.00
58534;BME280;44109;52.398;7.024;2023-07-30T05:12:42;100652.69;;;16.83;100.00
58534;BME280;44109;52.398;7.024;2023-07-30T05:15:09;100680.50;;;17.01;100.00
58534;BME280;44109;52.398;7.024;2023-07-30T05:17:37;100674.75;;;17.15;100.00
58534;BME280;44109;52.398;7.024;2023-07-30T05:20:06;100679.41;;;17.25;100.00
58534;BME280;44109;52.398;7.024;2023-07-30T05:22:36;100683.53;;;17.17;100.00
58534;BME280;44109;52.398;7.024;2023-07-30T05:25:04;100691.59;;;17.11;100.00
58534;BME280;44109;52.398;7.024;2023-07-30T05:27:32;100684.16;;;17.32;100.00
58534;BME280;44109;52.398;7.024;2023-07-30T05:30:00;100686.00;;;17.45;100.00
58534;BME280;44109;52.398;7.024;2023-07-30T05:32:27;100693.47;;;17.56;100.00
58534;BME280;44109;52.398;7.024;2023-07-30T05:34:55;100692.25;;;17.57;100.00
58534;BME280;44109;52.398;7.024;2023-07-30T05:37:22;100690.16;;;17.64;100.00
58534;BME280;44109;52.398;7.024;2023-07-30T05:39:51;100683.72;;;17.67;100.00
58534;BME280;44109;52.398;7.024;2023-07-30T05:42:19;100689.38;;;17.94;100.00
58534;BME280;44109;52.398;7.024;2023-07-30T05:44:46;100701.13;;;17.52;100.00
58534;BME280;44109;52.398;7.024;2023-07-30T05:47:14;100697.56;;;17.47;100.00
58534;BME280;44109;52.398;7.024;2023-07-30T05:49:42;100701.00;;;17.62;100.00
58534;BME280;44109;52.398;7.024;2023-07-30T05:52:09;100689.78;;;17.62;100.00
58534;BME280;44109;52.398;7.024;2023-07-30T05:54:37;100687.59;;;17.77;100.00
58534;BME280;44109;52.398;7.024;2023-07-30T05:57:06;100686.75;;;18.07;100.00
58534;BME280;44109;52.398;7.024;2023-07-30T05:59:34;100699.34;;;17.99;100.00
58534;BME280;44109;52.398;7.024;2023-07-30T06:02:02;100696.03;;;18.04;100.00
58534;BME280;44109;52.398;7.024;2023-07-30T06:04:30;100697.97;;;18.34;100.00
58534;BME280;44109;52.398;7.024;2023-07-30T06:06:59;100701.03;;;17.89;100.00
58534;BME280;44109;52.398;7.024;2023-07-30T06:09:27;100706.66;;;18.16;100.00
58534;BME280;44109;52.398;7.024;2023-07-30T06:11:56;100707.34;;;18.24;100.00
58534;BME280;44109;52.398;7.024;2023-07-30T06:14:26;100717.13;;;18.39;100.00
58534;BME280;44109;52.398;7.024;2023-07-30T06:16:54;100716.78;;;18.37;100.00
58534;BME280;44109;52.398;7.024;2023-07-30T06:19:22;100704.94;;;18.49;100.00
58534;BME280;44109;52.398;7.024;2023-07-30T06:21:49;100715.75;;;18.51;100.00
58534;BME280;44109;52.398;7.024;2023-07-30T06:24:17;100702.25;;;18.66;100.00
58534;BME280;44109;52.398;7.024;2023-07-30T06:26:44;100716.59;;;18.48;100.00
58534;BME280;44109;52.398;7.024;2023-07-30T06:29:12;100716.25;;;18.46;100.00
58534;BME280;44109;52.398;7.024;2023-07-30T06:31:42;100717.44;;;18.72;100.00
58534;BME280;44109;52.398;7.024;2023-07-30T06:34:10;100708.63;;;18.70;100.00
58534;BME280;44109;52.398;7.024;2023-07-30T06:36:38;100705.69;;;19.00;100.00
58534;BME280;44109;52.398;7.024;2023-07-30T06:39:05;100712.59;;;18.96;100.00
58534;BME280;44109;52.398;7.024;2023-07-30T06:41:33;100718.66;;;18.94;100.00
58534;BME280;44109;52.398;7.024;2023-07-30T06:44:00;100716.66;;;19.15;100.00
58534;BME280;44109;52.398;7.024;2023-07-30T06:46:28;100707.78;;;19.16;100.00
58534;BME280;44109;52.398;7.024;2023-07-30T06:48:57;100710.81;;;19.06;100.00
58534;BME280;44109;52.398;7.024;2023-07-30T06:51:25;100717.94;;;19.10;100.00
58534;BME280;44109;52.398;7.024;2023-07-30T06:53:52;100724.13;;;19.01;100.00
58534;BME280;44109;52.398;7.024;2023-07-30T06:56:20;100715.66;;;18.82;100.00
58534;BME280;44109;52.398;7.024;2023-07-30T06:58:48;100724.75;;;18.89;100.00
58534;BME280;44109;52.398;7.024;2023-07-30T07:01:15;100716.09;;;19.23;100.00
58534;BME280;44109;52.398;7.024;2023-07-30T07:03:43;100714.56;;;19.59;100.00
58534;BME280;44109;52.398;7.024;2023-07-30T07:06:12;100731.84;;;19.61;100.00
58534;BME280;44109;52.398;7.024;2023-07-30T07:08:39;100723.03;;;19.59;100.00
58534;BME280;44109;52.398;7.024;2023-07-30T07:11:07;100719.22;;;19.69;100.00
58534;BME280;44109;52.398;7.024;2023-07-30T07:13:35;100713.59;;;19.69;100.00
58534;BME280;44109;52.398;7.024;2023-07-30T07:16:02;100716.75;;;19.51;100.00
58534;BME280;44109;52.398;7.024;2023-07-30T07:18:30;100720.06;;;19.86;100.00
58534;BME280;44109;52.398;7.024;2023-07-30T07:20:58;100716.56;;;19.98;100.00
58534;BME280;44109;52.398;7.024;2023-07-30T07:23:27;100718.31;;;20.61;100.00
58534;BME280;44109;52.398;7.024;2023-07-30T07:25:54;100725.69;;;20.87;100.00
58534;BME280;44109;52.398;7.024;2023-07-30T07:28:22;100719.59;;;20.89;100.00
58534;BME280;44109;52.398;7.024;2023-07-30T07:30:50;100718.38;;;20.90;100.00
58534;BME280;44109;52.398;7.024;2023-07-30T07:33:17;100723.22;;;20.89;100.00
58534;BME280;44109;52.398;7.024;2023-07-30T07:35:45;100725.66;;;21.03;100.00
58534;BME280;44109;52.398;7.024;2023-07-30T07:38:12;100729.91;;;20.95;100.00
58534;BME280;44109;52.398;7.024;2023-07-30T07:40:42;100737.50;;;21.27;100.00
58534;BME280;44109;52.398;7.024;2023-07-30T07:43:10;100731.72;;;21.02;100.00
58534;BME280;44109;52.398;7.024;2023-07-30T07:45:38;100728.34;;;20.78;100.00
58534;BME280;44109;52.398;7.024;2023-07-30T07:48:06;100739.97;;;20.64;100.00
58534;BME280;44109;52.398;7.024;2023-07-30T07:50:34;100728.28;;;21.11;100.00
58534;BME280;44109;52.398;7.024;2023-07-30T07:53:01;100723.66;;;21.33;100.00
58534;BME280;44109;52.398;7.024;2023-07-30T07:55:29;100735.78;;;21.30;100.00
58534;BME280;44109;52.398;7.024;2023-07-30T07:57:58;100721.94;;;21.07;100.00
58534;BME280;44109;52.398;7.024;2023-07-30T08:00:25;100743.00;;;21.02;100.00
58534;BME280;44109;52.398;7.024;2023-07-30T08:02:53;100738.84;;;21.07;100.00
58534;BME280;44109;52.398;7.024;2023-07-30T08:05:21;100738.91;;;20.90;100.00
58534;BME280;44109;52.398;7.024;2023-07-30T08:07:50;100740.25;;;21.15;100.00
58534;BME280;44109;52.398;7.024;2023-07-30T08:10:18;100738.69;;;21.14;100.00
58534;BME280;44109;52.398;7.024;2023-07-30T08:12:46;100739.84;;;21.00;100.00
58534;BME280;44109;52.398;7.024;2023-07-30T08:15:16;100739.78;;;20.87;100.00
58534;BME280;44109;52.398;7.024;2023-07-30T08:17:43;100738.91;;;20.90;100.00
58534;BME280;44109;52.398;7.024;2023-07-30T08:20:11;100734.84;;;20.75;100.00
58534;BME280;44109;52.398;7.024;2023-07-30T08:22:39;100741.19;;;20.95;100.00
58534;BME280;44109;52.398;7.024;2023-07-30T08:25:07;100734.13;;;21.03;100.00
58534;BME280;44109;52.398;7.024;2023-07-30T08:27:35;100725.50;;;20.94;100.00
58534;BME280;44109;52.398;7.024;2023-07-30T08:30:03;100734.66;;;20.98;100.00
58534;BME280;44109;52.398;7.024;2023-07-30T08:32:32;100734.69;;;20.82;100.00
58534;BME280;44109;52.398;7.024;2023-07-30T08:35:00;100726.75;;;21.51;100.00
58534;BME280;44109;52.398;7.024;2023-07-30T08:37:28;100730.38;;;21.52;100.00
58534;BME280;44109;52.398;7.024;2023-07-30T08:39:56;100722.03;;;21.61;100.00
58534;BME280;44109;52.398;7.024;2023-07-30T08:42:24;100716.59;;;20.80;100.00
58534;BME280;44109;52.398;7.024;2023-07-30T08:44:51;100721.91;;;21.23;100.00
58534;BME280;44109;52.398;7.024;2023-07-30T08:47:19;100723.31;;;21.73;100.00
58534;BME280;44109;52.398;7.024;2023-07-30T08:49:48;100720.28;;;21.93;100.00
58534;BME280;44109;52.398;7.024;2023-07-30T08:52:16;100722.03;;;22.16;100.00
58534;BME280;44109;52.398;7.024;2023-07-30T08:54:47;100726.97;;;22.63;100.00
58534;BME280;44109;52.398;7.024;2023-07-30T08:57:17;100715.84;;;22.81;100.00
58534;BME280;44109;52.398;7.024;2023-07-30T08:59:49;100718.69;;;23.16;100.00
58534;BME280;44109;52.398;7.024;2023-07-30T09:02:23;100715.53;;;23.14;100.00
58534;BME280;44109;52.398;7.024;2023-07-30T09:05:00;100711.75;;;22.22;100.00
58534;BME280;44109;52.398;7.024;2023-07-30T09:07:27;100708.88;;;22.47;100.00
58534;BME280;44109;52.398;7.024;2023-07-30T09:09:55;100716.03;;;22.39;100.00
58534;BME280;44109;52.398;7.024;2023-07-30T09:12:26;100719.41;;;22.47;100.00
58534;BME280;44109;52.398;7.024;2023-07-30T09:14:55;100722.91;;;22.64;100.00
58534;BME280;44109;52.398;7.024;2023-07-30T09:17:23;100733.31;;;22.41;100.00
58534;BME280;44109;52.398;7.024;2023-07-30T09:19:52;100722.28;;;22.21;100.00
58534;BME280;44109;52.398;7.024;2023-07-30T09:22:24;100728.00;;;22.43;100.00
58534;BME280;44109;52.398;7.024;2023-07-30T09:24:53;100724.25;;;22.59;100.00
58534;BME280;44109;52.398;7.024;2023-07-30T09:27:21;100728.78;;;22.06;100.00
58534;BME280;44109;52.398;7.024;2023-07-30T09:29:53;100728.25;;;22.23;100.00
58534;BME280;44109;52.398;7.024;2023-07-30T09:32:25;100739.66;;;22.20;100.00
58534;BME280;44109;52.398;7.024;2023-07-30T09:34:54;100720.25;;;21.67;100.00
58534;BME280;44109;52.398;7.024;2023-07-30T09:37:23;100719.94;;;21.78;100.00
58534;BME280;44109;52.398;7.024;2023-07-30T09:39:51;100733.19;;;21.52;100.00
58534;BME280;44109;52.398;7.024;2023-07-30T09:42:19;100736.19;;;21.74;100.00
58534;BME280;44109;52.398;7.024;2023-07-30T09:44:47;100730.13;;;21.88;100.00
58534;BME280;44109;52.398;7.024;2023-07-30T09:47:15;100750.97;;;22.20;100.00
58534;BME280;44109;52.398;7.024;2023-07-30T09:49:43;100747.31;;;22.07;100.00
58534;BME280;44109;52.398;7.024;2023-07-30T09:52:12;100745.59;;;21.84;100.00
58534;BME280;44109;52.398;7.024;2023-07-30T09:54:42;100745.53;;;22.13;100.00
58534;BME280;44109;52.398;7.024;2023-07-30T09:57:10;100736.63;;;21.60;100.00
58534;BME280;44109;52.398;7.024;2023-07-30T09:59:37;100736.81;;;21.52;100.00
58534;BME280;44109;52.398;7.024;2023-07-30T10:02:06;100746.84;;;21.95;100.00
58534;BME280;44109;52.398;7.024;2023-07-30T10:04:43;100740.31;;;21.44;100.00
58534;BME280;44109;52.398;7.024;2023-07-30T10:07:19;100756.78;;;21.29;100.00
58534;BME280;44109;52.398;7.024;2023-07-30T10:09:51;100751.09;;;21.33;100.00
58534;BME280;44109;52.398;7.024;2023-07-30T10:12:29;100736.00;;;20.94;100.00
58534;BME280;44109;52.398;7.024;2023-07-30T10:15:00;100752.00;;;21.13;100.00
58534;BME280;44109;52.398;7.024;2023-07-30T10:17:28;100744.97;;;21.05;100.00
58534;BME280;44109;52.398;7.024;2023-07-30T10:20:19;100748.06;;;20.62;100.00
58534;BME280;44109;52.398;7.024;2023-07-30T10:22:51;100746.31;;;20.51;100.00
58534;BME280;44109;52.398;7.024;2023-07-30T10:25:22;100746.19;;;20.39;100.00
58534;BME280;44109;52.398;7.024;2023-07-30T10:27:55;100753.38;;;20.60;100.00
58534;BME280;44109;52.398;7.024;2023-07-30T10:30:30;100747.19;;;20.65;100.00
58534;BME280;44109;52.398;7.024;2023-07-30T10:33:01;100750.91;;;20.78;100.00
58534;BME280;44109;52.398;7.024;2023-07-30T10:35:38;100754.06;;;20.80;100.00
58534;BME280;44109;52.398;7.024;2023-07-30T10:38:16;100758.75;;;20.18;100.00
58534;BME280;44109;52.398;7.024;2023-07-30T10:41:05;100753.91;;;19.82;100.00
58534;BME280;44109;52.398;7.024;2023-07-30T10:43:35;100748.59;;;19.68;100.00
58534;BME280;44109;52.398;7.024;2023-07-30T10:46:06;100752.53;;;19.70;100.00
58534;BME280;44109;52.398;7.024;2023-07-30T10:48:35;100751.16;;;19.79;100.00
58534;BME280;44109;52.398;7.024;2023-07-30T10:51:05;100750.25;;;20.01;100.00
58534;BME280;44109;52.398;7.024;2023-07-30T10:53:33;100747.28;;;20.61;100.00
58534;BME280;44109;52.398;7.024;2023-07-30T10:56:05;100744.25;;;20.85;100.00
58534;BME280;44109;52.398;7.024;2023-07-30T10:58:35;100743.63;;;21.10;100.00
58534;BME280;44109;52.398;7.024;2023-07-30T11:01:04;100734.78;;;21.24;100.00
58534;BME280;44109;52.398;7.024;2023-07-30T11:03:35;100728.53;;;21.16;100.00
58534;BME280;44109;52.398;7.024;2023-07-30T11:06:04;100734.84;;;20.91;100.00
58534;BME280;44109;52.398;7.024;2023-07-30T11:08:35;100738.03;;;20.77;100.00
58534;BME280;44109;52.398;7.024;2023-07-30T11:11:07;100723.84;;;20.64;100.00
58534;BME280;44109;52.398;7.024;2023-07-30T11:13:36;100734.13;;;21.03;100.00
58534;BME280;44109;52.398;7.024;2023-07-30T11:16:05;100744.16;;;21.50;100.00
58534;BME280;44109;52.398;7.024;2023-07-30T11:18:34;100741.75;;;21.77;100.00
58534;BME280;44109;52.398;7.024;2023-07-30T11:21:04;100757.41;;;21.66;99.63
58534;BME280;44109;52.398;7.024;2023-07-30T11:23:32;100743.22;;;21.24;100.00
58534;BME280;44109;52.398;7.024;2023-07-30T11:26:03;100749.88;;;21.17;100.00
58534;BME280;44109;52.398;7.024;2023-07-30T11:28:34;100744.94;;;21.50;100.00
58534;BME280;44109;52.398;7.024;2023-07-30T11:31:04;100744.88;;;21.79;100.00
58534;BME280;44109;52.398;7.024;2023-07-30T11:33:34;100749.00;;;22.04;98.83
58534;BME280;44109;52.398;7.024;2023-07-30T11:36:03;100747.72;;;21.67;96.11
58534;BME280;44109;52.398;7.024;2023-07-30T11:38:32;100756.53;;;21.40;100.00
58534;BME280;44109;52.398;7.024;2023-07-30T11:41:01;100762.00;;;21.31;100.00
58534;BME280;44109;52.398;7.024;2023-07-30T11:43:29;100756.41;;;21.14;100.00
58534;BME280;44109;52.398;7.024;2023-07-30T11:46:13;100762.34;;;20.71;100.00
58534;BME280;44109;52.398;7.024;2023-07-30T11:48:43;100769.69;;;20.32;100.00
58534;BME280;44109;52.398;7.024;2023-07-30T11:51:21;100765.72;;;20.13;100.00
58534;BME280;44109;52.398;7.024;2023-07-30T11:53:52;100764.81;;;20.16;100.00
58534;BME280;44109;52.398;7.024;2023-07-30T11:56:22;100759.47;;;20.38;100.00
58534;BME280;44109;52.398;7.024;2023-07-30T11:58:53;100767.41;;;20.27;100.00
58534;BME280;44109;52.398;7.024;2023-07-30T12:01:25;100779.13;;;20.42;100.00
58534;BME280;44109;52.398;7.024;2023-07-30T12:03:54;100783.72;;;19.99;100.00
58534;BME280;44109;52.398;7.024;2023-07-30T12:06:22;100779.16;;;19.66;100.00
58534;BME280;44109;52.398;7.024;2023-07-30T12:08:51;100784.97;;;20.15;100.00
58534;BME280;44109;52.398;7.024;2023-07-30T12:11:19;100792.09;;;20.03;100.00
58534;BME280;44109;52.398;7.024;2023-07-30T12:13:47;100795.13;;;19.72;100.00
58534;BME280;44109;52.398;7.024;2023-07-30T12:16:16;100808.09;;;19.66;100.00
58534;BME280;44109;52.398;7.024;2023-07-30T12:18:45;100803.06;;;19.34;100.00
58534;BME280;44109;52.398;7.024;2023-07-30T12:21:13;100805.59;;;18.82;100.00
58534;BME280;44109;52.398;7.024;2023-07-30T12:23:40;100804.38;;;18.56;100.00
58534;BME280;44109;52.398;7.024;2023-07-30T12:26:09;100815.81;;;17.80;100.00
58534;BME280;44109;52.398;7.024;2023-07-30T12:28:36;100824.22;;;17.42;100.00
58534;BME280;44109;52.398;7.024;2023-07-30T12:31:04;100815.38;;;17.47;100.00
58534;BME280;44109;52.398;7.024;2023-07-30T12:33:32;100808.94;;;17.50;100.00
58534;BME280;44109;52.398;7.024;2023-07-30T12:36:01;100805.00;;;17.82;100.00
58534;BME280;44109;52.398;7.024;2023-07-30T12:38:29;100809.75;;;18.16;100.00
58534;BME280;44109;52.398;7.024;2023-07-30T12:40:56;100817.88;;;18.37;100.00
58534;BME280;44109;52.398;7.024;2023-07-30T12:43:24;100820.66;;;18.68;100.00
58534;BME280;44109;52.398;7.024;2023-07-30T12:45:52;100829.22;;;18.84;100.00
58534;BME280;44109;52.398;7.024;2023-07-30T12:48:19;100806.78;;;19.08;100.00